メインページ
METAR-TAF:

METAR-TAF

空港 :

ラルナカ, キプロス

ラルナカ国際空港

緯度: 34-53N, 経度: 033-38E, 海抜: 2m

現時点の気象観測

当レポートは7分前の19:30(UTC)に作成
南/南西の風 6kt
気温 13°C
湿度 72%
気圧 1009 hPa
視程10km以上
高度5000ftの雲はほとんどない

METAR: LCLK 251930Z 21006KT 9999 FEW050 13/08 Q1009 NOSIG

時間: 21:37 (19:37 UTC)

予報

当レポートは2時間7分前の17:30(UTC)に作成
予報は25日の 18時(UTC)から 26日の 18時(UTC)まで有効
西/北西の風 9kt
視程10km以上
高度3000ftの雲は散在している
確率 30% :
26日の 07時(UTC)から 26日の 12時(UTC)まで一時的に
視程: 5000m
高度2500ftの雲は散在している, 塔状積雲.
にわか雨
26日の 07時(UTC)から 26日の 11時(UTC)まで徐々に
南/南西の風 15kt

TAF: LCLK 251730Z 2518/2618 29009KT 9999 SCT030 PROB30 TEMPO 2607/2612 5000 SHRA SCT025TCU BECMG 2607/2611 21015KT

4,000以上の空港の気象観測と天気予報(METAR報とTAF報)

利用可能な観測所は地図上に黄色い丸と赤い丸で示す。

丸の上にカーソルを重ねると観測所名を参照できる。

次にクリックすると気象観測と天気予報を参照できる。

マップの切り替え:黒色「×」印の緑ボタンをクリックして拡大、「-」印の緑ボタンをクリックして縮小、緑色の三角印をクリックして隣りの地図に切り替え


METAR-TAF: